sensor_id;sensor_type;location;lat;lon;timestamp;pressure;altitude;pressure_sealevel;temperature;humidity
9893;BME280;4985;49.092;8.542;2024-02-15T00:01:51;99788.16;;;16.13;50.87
9893;BME280;4985;49.092;8.542;2024-02-15T00:04:16;99782.00;;;16.12;51.09
9893;BME280;4985;49.092;8.542;2024-02-15T00:06:42;99777.53;;;16.13;51.06
9893;BME280;4985;49.092;8.542;2024-02-15T00:09:08;99779.34;;;16.12;51.19
9893;BME280;4985;49.092;8.542;2024-02-15T00:11:33;99777.53;;;16.13;51.32
9893;BME280;4985;49.092;8.542;2024-02-15T00:13:58;99781.19;;;16.12;50.90
9893;BME280;4985;49.092;8.542;2024-02-15T00:16:24;99781.19;;;16.12;51.31
9893;BME280;4985;49.092;8.542;2024-02-15T00:18:49;99782.00;;;16.12;50.93
9893;BME280;4985;49.092;8.542;2024-02-15T00:21:14;99775.06;;;16.11;50.99
9893;BME280;4985;49.092;8.542;2024-02-15T00:23:41;99785.50;;;16.13;50.86
9893;BME280;4985;49.092;8.542;2024-02-15T00:26:07;99778.34;;;16.13;50.62
9893;BME280;4985;49.092;8.542;2024-02-15T00:28:34;99780.19;;;16.13;50.64
9893;BME280;4985;49.092;8.542;2024-02-15T00:31:00;99783.66;;;16.13;50.86
9893;BME280;4985;49.092;8.542;2024-02-15T00:33:25;99782.84;;;16.13;50.81
9893;BME280;4985;49.092;8.542;2024-02-15T00:35:50;99782.84;;;16.13;50.42
9893;BME280;4985;49.092;8.542;2024-02-15T00:38:17;99784.47;;;16.14;50.71
9893;BME280;4985;49.092;8.542;2024-02-15T00:40:42;99780.00;;;16.14;50.40
9893;BME280;4985;49.092;8.542;2024-02-15T00:43:08;99779.16;;;16.14;50.82
9893;BME280;4985;49.092;8.542;2024-02-15T00:45:33;99786.13;;;16.15;50.60
9893;BME280;4985;49.092;8.542;2024-02-15T00:47:59;99777.34;;;16.14;50.35
9893;BME280;4985;49.092;8.542;2024-02-15T00:50:24;99773.03;;;16.13;50.73
9893;BME280;4985;49.092;8.542;2024-02-15T00:52:49;99768.53;;;16.14;50.30
9893;BME280;4985;49.092;8.542;2024-02-15T00:55:14;99774.69;;;16.14;50.47
9893;BME280;4985;49.092;8.542;2024-02-15T00:57:40;99769.38;;;16.14;50.34
9893;BME280;4985;49.092;8.542;2024-02-15T01:00:06;99765.69;;;16.15;50.31
9893;BME280;4985;49.092;8.542;2024-02-15T01:02:34;99764.69;;;16.16;50.49
9893;BME280;4985;49.092;8.542;2024-02-15T01:05:00;99769.16;;;16.16;50.38
9893;BME280;4985;49.092;8.542;2024-02-15T01:07:26;99763.03;;;16.15;50.08
9893;BME280;4985;49.092;8.542;2024-02-15T01:09:52;99763.03;;;16.15;50.18
9893;BME280;4985;49.092;8.542;2024-02-15T01:12:17;99760.38;;;16.15;50.27
9893;BME280;4985;49.092;8.542;2024-02-15T01:14:43;99764.69;;;16.16;50.16
9893;BME280;4985;49.092;8.542;2024-02-15T01:17:08;99772.84;;;16.15;49.97
9893;BME280;4985;49.092;8.542;2024-02-15T01:19:34;99772.66;;;16.16;50.19
9893;BME280;4985;49.092;8.542;2024-02-15T01:21:59;99768.16;;;16.17;50.19
9893;BME280;4985;49.092;8.542;2024-02-15T01:24:25;99766.50;;;16.16;50.23
9893;BME280;4985;49.092;8.542;2024-02-15T01:26:50;99777.97;;;16.16;50.06
9893;BME280;4985;49.092;8.542;2024-02-15T01:29:15;99778.59;;;16.18;49.76
9893;BME280;4985;49.092;8.542;2024-02-15T01:31:42;99777.97;;;16.16;49.91
9893;BME280;4985;49.092;8.542;2024-02-15T01:34:07;99775.31;;;16.16;50.02
9893;BME280;4985;49.092;8.542;2024-02-15T01:36:33;99776.94;;;16.17;49.87
9893;BME280;4985;49.092;8.542;2024-02-15T01:38:58;99776.94;;;16.17;50.02
9893;BME280;4985;49.092;8.542;2024-02-15T01:41:23;99766.31;;;16.17;49.56
9893;BME280;4985;49.092;8.542;2024-02-15T01:43:49;99768.97;;;16.17;49.83
9893;BME280;4985;49.092;8.542;2024-02-15T01:46:15;99774.28;;;16.17;49.58
9893;BME280;4985;49.092;8.542;2024-02-15T01:48:41;99777.78;;;16.18;49.72
9893;BME280;4985;49.092;8.542;2024-02-15T01:51:09;99772.66;;;16.16;49.65
9893;BME280;4985;49.092;8.542;2024-02-15T01:53:35;99769.81;;;16.18;50.03
9893;BME280;4985;49.092;8.542;2024-02-15T01:56:01;99769.81;;;16.18;49.83
9893;BME280;4985;49.092;8.542;2024-02-15T01:58:27;99773.28;;;16.18;49.91
9893;BME280;4985;49.092;8.542;2024-02-15T02:00:53;99765.31;;;16.18;49.91
9893;BME280;4985;49.092;8.542;2024-02-15T02:03:21;99768.16;;;16.17;49.83
9893;BME280;4985;49.092;8.542;2024-02-15T02:05:47;99764.50;;;16.18;49.83
9893;BME280;4985;49.092;8.542;2024-02-15T02:08:12;99763.66;;;16.17;49.68
9893;BME280;4985;49.092;8.542;2024-02-15T02:10:38;99757.53;;;16.17;49.79
9893;BME280;4985;49.092;8.542;2024-02-15T02:13:04;99757.34;;;16.18;49.28
9893;BME280;4985;49.092;8.542;2024-02-15T02:15:34;99760.00;;;16.18;49.92
9893;BME280;4985;49.092;8.542;2024-02-15T02:18:03;99753.88;;;16.18;49.44
9893;BME280;4985;49.092;8.542;2024-02-15T02:20:31;99761.84;;;16.18;49.75
9893;BME280;4985;49.092;8.542;2024-02-15T02:23:13;99761.00;;;16.17;49.64
9893;BME280;4985;49.092;8.542;2024-02-15T02:25:40;99753.03;;;16.17;50.08
9893;BME280;4985;49.092;8.542;2024-02-15T02:28:08;99748.75;;;16.16;49.89
9893;BME280;4985;49.092;8.542;2024-02-15T02:30:33;99747.72;;;16.17;49.55
9893;BME280;4985;49.092;8.542;2024-02-15T02:33:00;99748.56;;;16.18;49.44
9893;BME280;4985;49.092;8.542;2024-02-15T02:35:25;99753.03;;;16.17;49.80
9893;BME280;4985;49.092;8.542;2024-02-15T02:37:52;99754.69;;;16.18;49.90
9893;BME280;4985;49.092;8.542;2024-02-15T02:40:20;99753.03;;;16.17;49.65
9893;BME280;4985;49.092;8.542;2024-02-15T02:42:53;99749.56;;;16.17;49.91
9893;BME280;4985;49.092;8.542;2024-02-15T02:45:21;99746.09;;;16.16;49.84
9893;BME280;4985;49.092;8.542;2024-02-15T02:47:48;99745.06;;;16.17;49.45
9893;BME280;4985;49.092;8.542;2024-02-15T02:50:14;99746.91;;;16.17;49.74
9893;BME280;4985;49.092;8.542;2024-02-15T02:52:39;99752.03;;;16.18;49.88
9893;BME280;4985;49.092;8.542;2024-02-15T02:55:05;99755.69;;;16.17;49.49
9893;BME280;4985;49.092;8.542;2024-02-15T02:57:38;99753.88;;;16.18;49.69
9893;BME280;4985;49.092;8.542;2024-02-15T03:00:11;99749.38;;;16.18;49.72
9893;BME280;4985;49.092;8.542;2024-02-15T03:02:38;99754.88;;;16.17;49.61
9893;BME280;4985;49.092;8.542;2024-02-15T03:05:04;99752.22;;;16.17;49.70
9893;BME280;4985;49.092;8.542;2024-02-15T03:07:37;99747.72;;;16.17;49.43
9893;BME280;4985;49.092;8.542;2024-02-15T03:10:03;99753.03;;;16.17;49.64
9893;BME280;4985;49.092;8.542;2024-02-15T03:12:30;99748.56;;;16.18;49.90
9893;BME280;4985;49.092;8.542;2024-02-15T03:14:55;99749.38;;;16.18;49.73
9893;BME280;4985;49.092;8.542;2024-02-15T03:17:22;99751.22;;;16.18;49.57
9893;BME280;4985;49.092;8.542;2024-02-15T03:19:47;99751.03;;;16.19;49.59
9893;BME280;4985;49.092;8.542;2024-02-15T03:22:14;99751.22;;;16.18;49.73
9893;BME280;4985;49.092;8.542;2024-02-15T03:24:39;99745.06;;;16.17;49.78
9893;BME280;4985;49.092;8.542;2024-02-15T03:27:05;99749.38;;;16.18;49.54
9893;BME280;4985;49.092;8.542;2024-02-15T03:29:30;99741.41;;;16.18;49.41
9893;BME280;4985;49.092;8.542;2024-02-15T03:31:55;99744.06;;;16.18;49.66
9893;BME280;4985;49.092;8.542;2024-02-15T03:34:21;99749.38;;;16.18;49.66
9893;BME280;4985;49.092;8.542;2024-02-15T03:36:47;99750.19;;;16.19;49.86
9893;BME280;4985;49.092;8.542;2024-02-15T03:39:16;99746.72;;;16.18;49.63
9893;BME280;4985;49.092;8.542;2024-02-15T03:41:42;99753.66;;;16.19;49.39
9893;BME280;4985;49.092;8.542;2024-02-15T03:44:07;99754.53;;;16.20;49.51
9893;BME280;4985;49.092;8.542;2024-02-15T03:46:34;99753.66;;;16.19;49.51
9893;BME280;4985;49.092;8.542;2024-02-15T03:48:59;99751.03;;;16.19;49.65
9893;BME280;4985;49.092;8.542;2024-02-15T03:51:25;99744.88;;;16.19;49.65
9893;BME280;4985;49.092;8.542;2024-02-15T03:53:51;99745.72;;;16.19;49.78
9893;BME280;4985;49.092;8.542;2024-02-15T03:56:18;99740.38;;;16.19;49.52
9893;BME280;4985;49.092;8.542;2024-02-15T03:58:44;99742.22;;;16.19;49.50
9893;BME280;4985;49.092;8.542;2024-02-15T04:01:10;99749.38;;;16.18;49.76
9893;BME280;4985;49.092;8.542;2024-02-15T04:03:36;99744.06;;;16.18;49.64
9893;BME280;4985;49.092;8.542;2024-02-15T04:06:01;99744.06;;;16.18;49.46
9893;BME280;4985;49.092;8.542;2024-02-15T04:08:27;99741.41;;;16.18;49.55
9893;BME280;4985;49.092;8.542;2024-02-15T04:10:52;99738.75;;;16.18;49.63
9893;BME280;4985;49.092;8.542;2024-02-15T04:13:18;99736.09;;;16.18;49.93
9893;BME280;4985;49.092;8.542;2024-02-15T04:15:44;99738.75;;;16.18;49.81
9893;BME280;4985;49.092;8.542;2024-02-15T04:18:12;99741.41;;;16.18;49.86
9893;BME280;4985;49.092;8.542;2024-02-15T04:20:37;99742.41;;;16.17;49.95
9893;BME280;4985;49.092;8.542;2024-02-15T04:23:03;99748.56;;;16.18;49.61
9893;BME280;4985;49.092;8.542;2024-02-15T04:25:30;99736.09;;;16.18;49.59
9893;BME280;4985;49.092;8.542;2024-02-15T04:27:56;99738.75;;;16.18;49.65
9893;BME280;4985;49.092;8.542;2024-02-15T04:30:23;99729.78;;;16.19;49.69
9893;BME280;4985;49.092;8.542;2024-02-15T04:32:49;99729.78;;;16.19;49.64
9893;BME280;4985;49.092;8.542;2024-02-15T04:35:15;99724.47;;;16.19;49.67
9893;BME280;4985;49.092;8.542;2024-02-15T04:37:40;99728.94;;;16.19;49.84
9893;BME280;4985;49.092;8.542;2024-02-15T04:40:06;99734.25;;;16.19;49.50
9893;BME280;4985;49.092;8.542;2024-02-15T04:42:39;99730.78;;;16.18;49.67
9893;BME280;4985;49.092;8.542;2024-02-15T04:45:05;99720.16;;;16.18;49.61
9893;BME280;4985;49.092;8.542;2024-02-15T04:47:33;99730.78;;;16.18;49.92
9893;BME280;4985;49.092;8.542;2024-02-15T04:49:59;99737.72;;;16.19;49.65
9893;BME280;4985;49.092;8.542;2024-02-15T04:52:24;99731.78;;;16.17;49.96
9893;BME280;4985;49.092;8.542;2024-02-15T04:54:50;99737.09;;;16.17;49.71
9893;BME280;4985;49.092;8.542;2024-02-15T04:57:15;99729.97;;;16.18;49.59
9893;BME280;4985;49.092;8.542;2024-02-15T04:59:41;99734.44;;;16.17;49.66
9893;BME280;4985;49.092;8.542;2024-02-15T05:02:12;99728.13;;;16.18;49.51
9893;BME280;4985;49.092;8.542;2024-02-15T05:04:37;99721.81;;;16.19;49.50
9893;BME280;4985;49.092;8.542;2024-02-15T05:07:03;99718.31;;;16.19;49.95
9893;BME280;4985;49.092;8.542;2024-02-15T05:09:29;99713.00;;;16.19;49.56
9893;BME280;4985;49.092;8.542;2024-02-15T05:11:56;99708.53;;;16.19;49.77
9893;BME280;4985;49.092;8.542;2024-02-15T05:14:22;99713.81;;;16.19;49.94
9893;BME280;4985;49.092;8.542;2024-02-15T05:16:49;99718.31;;;16.19;49.78
9893;BME280;4985;49.092;8.542;2024-02-15T05:19:15;99712.19;;;16.18;49.70
9893;BME280;4985;49.092;8.542;2024-02-15T05:21:41;99714.84;;;16.18;49.70
9893;BME280;4985;49.092;8.542;2024-02-15T05:24:13;99713.00;;;16.19;49.82
9893;BME280;4985;49.092;8.542;2024-02-15T05:26:40;99712.19;;;16.18;49.58
9893;BME280;4985;49.092;8.542;2024-02-15T05:29:07;99712.19;;;16.18;49.57
9893;BME280;4985;49.092;8.542;2024-02-15T05:31:33;99712.19;;;16.18;49.59
9893;BME280;4985;49.092;8.542;2024-02-15T05:33:59;99701.56;;;16.18;49.66
9893;BME280;4985;49.092;8.542;2024-02-15T05:36:25;99712.19;;;16.18;49.49
9893;BME280;4985;49.092;8.542;2024-02-15T05:38:54;99713.81;;;16.19;49.68
9893;BME280;4985;49.092;8.542;2024-02-15T05:41:20;99704.22;;;16.18;49.54
9893;BME280;4985;49.092;8.542;2024-02-15T05:43:46;99712.19;;;16.18;49.67
9893;BME280;4985;49.092;8.542;2024-02-15T05:46:14;99700.56;;;16.19;49.87
9893;BME280;4985;49.092;8.542;2024-02-15T05:48:40;99715.50;;;16.20;49.66
9893;BME280;4985;49.092;8.542;2024-02-15T05:51:08;99707.53;;;16.20;49.84
9893;BME280;4985;49.092;8.542;2024-02-15T05:53:34;99711.16;;;16.19;49.52
9893;BME280;4985;49.092;8.542;2024-02-15T05:56:07;99712.03;;;16.20;49.69
9893;BME280;4985;49.092;8.542;2024-02-15T05:58:33;99701.56;;;16.18;49.47
9893;BME280;4985;49.092;8.542;2024-02-15T06:00:59;99698.75;;;16.20;49.70
9893;BME280;4985;49.092;8.542;2024-02-15T06:03:28;99702.22;;;16.20;49.61
9893;BME280;4985;49.092;8.542;2024-02-15T06:05:53;99700.56;;;16.19;49.65
9893;BME280;4985;49.092;8.542;2024-02-15T06:08:26;99700.56;;;16.19;49.45
9893;BME280;4985;49.092;8.542;2024-02-15T06:10:52;99696.25;;;16.18;49.38
9893;BME280;4985;49.092;8.542;2024-02-15T06:13:18;99709.38;;;16.20;49.73
9893;BME280;4985;49.092;8.542;2024-02-15T06:15:43;99709.38;;;16.20;49.67
9893;BME280;4985;49.092;8.542;2024-02-15T06:18:09;99713.81;;;16.19;49.87
9893;BME280;4985;49.092;8.542;2024-02-15T06:20:39;99708.53;;;16.19;49.85
9893;BME280;4985;49.092;8.542;2024-02-15T06:23:06;99710.34;;;16.19;49.56
9893;BME280;4985;49.092;8.542;2024-02-15T06:25:33;99713.00;;;16.19;49.82
9893;BME280;4985;49.092;8.542;2024-02-15T06:27:58;99704.88;;;16.20;49.71
9893;BME280;4985;49.092;8.542;2024-02-15T06:30:28;99713.00;;;16.19;49.50
9893;BME280;4985;49.092;8.542;2024-02-15T06:33:11;99701.56;;;16.18;49.72
9893;BME280;4985;49.092;8.542;2024-02-15T06:35:55;99700.75;;;16.18;49.45
9893;BME280;4985;49.092;8.542;2024-02-15T06:38:39;99693.78;;;16.17;49.74
9893;BME280;4985;49.092;8.542;2024-02-15T06:41:23;99690.13;;;16.18;49.50
9893;BME280;4985;49.092;8.542;2024-02-15T06:43:49;99691.13;;;16.17;49.77
9893;BME280;4985;49.092;8.542;2024-02-15T06:46:14;99683.97;;;16.17;49.79
9893;BME280;4985;49.092;8.542;2024-02-15T06:48:42;99695.44;;;16.18;49.74
9893;BME280;4985;49.092;8.542;2024-02-15T06:51:12;99688.28;;;16.18;49.80
9893;BME280;4985;49.092;8.542;2024-02-15T06:53:39;99689.28;;;16.17;49.77
9893;BME280;4985;49.092;8.542;2024-02-15T06:56:05;99681.13;;;16.19;49.68
9893;BME280;4985;49.092;8.542;2024-02-15T06:58:30;99689.09;;;16.19;49.92
9893;BME280;4985;49.092;8.542;2024-02-15T07:00:56;99687.28;;;16.19;49.80
9893;BME280;4985;49.092;8.542;2024-02-15T07:03:21;99679.31;;;16.19;49.58
9893;BME280;4985;49.092;8.542;2024-02-15T07:05:48;99676.63;;;16.19;49.74
9893;BME280;4985;49.092;8.542;2024-02-15T07:08:14;99681.97;;;16.19;49.69
9893;BME280;4985;49.092;8.542;2024-02-15T07:10:39;99675.66;;;16.20;49.80
9893;BME280;4985;49.092;8.542;2024-02-15T07:13:05;99669.53;;;16.20;49.55
9893;BME280;4985;49.092;8.542;2024-02-15T07:15:33;99676.63;;;16.19;49.54
9893;BME280;4985;49.092;8.542;2024-02-15T07:18:06;99677.50;;;16.20;49.43
9893;BME280;4985;49.092;8.542;2024-02-15T07:20:33;99678.31;;;16.20;49.42
9893;BME280;4985;49.092;8.542;2024-02-15T07:22:58;99676.63;;;16.19;49.68
9893;BME280;4985;49.092;8.542;2024-02-15T07:25:24;99678.31;;;16.20;49.56
9893;BME280;4985;49.092;8.542;2024-02-15T07:27:49;99669.34;;;16.21;49.54
9893;BME280;4985;49.092;8.542;2024-02-15T07:30:14;99670.34;;;16.20;49.79
9893;BME280;4985;49.092;8.542;2024-02-15T07:32:40;99675.66;;;16.20;49.77
9893;BME280;4985;49.092;8.542;2024-02-15T07:35:05;99672.19;;;16.20;49.76
9893;BME280;4985;49.092;8.542;2024-02-15T07:37:35;99660.72;;;16.19;49.78
9893;BME280;4985;49.092;8.542;2024-02-15T07:40:01;99662.38;;;16.20;49.56
9893;BME280;4985;49.092;8.542;2024-02-15T07:42:29;99663.00;;;16.22;49.67
9893;BME280;4985;49.092;8.542;2024-02-15T07:44:54;99655.03;;;16.22;49.57
9893;BME280;4985;49.092;8.542;2024-02-15T07:47:20;99651.38;;;16.23;49.50
9893;BME280;4985;49.092;8.542;2024-02-15T07:49:49;99654.03;;;16.23;49.63
9893;BME280;4985;49.092;8.542;2024-02-15T07:52:15;99652.19;;;16.24;49.48
9893;BME280;4985;49.092;8.542;2024-02-15T07:54:40;99646.69;;;16.25;49.68
9893;BME280;4985;49.092;8.542;2024-02-15T07:57:05;99642.38;;;16.24;49.50
9893;BME280;4985;49.092;8.542;2024-02-15T07:59:31;99654.66;;;16.25;49.24
9893;BME280;4985;49.092;8.542;2024-02-15T08:01:56;99648.50;;;16.25;49.50
9893;BME280;4985;49.092;8.542;2024-02-15T08:04:23;99650.97;;;16.26;49.44
9893;BME280;4985;49.092;8.542;2024-02-15T08:06:50;99651.78;;;16.27;49.45
9893;BME280;4985;49.092;8.542;2024-02-15T08:09:17;99643.00;;;16.26;49.54
9893;BME280;4985;49.092;8.542;2024-02-15T08:11:45;99650.16;;;16.26;49.29
9893;BME280;4985;49.092;8.542;2024-02-15T08:14:10;99646.88;;;16.24;49.34
9893;BME280;4985;49.092;8.542;2024-02-15T08:16:38;99657.50;;;16.24;49.64
9893;BME280;4985;49.092;8.542;2024-02-15T08:19:05;99657.50;;;16.24;49.47
9893;BME280;4985;49.092;8.542;2024-02-15T08:21:32;99652.19;;;16.24;49.52
9893;BME280;4985;49.092;8.542;2024-02-15T08:24:00;99654.84;;;16.24;49.72
9893;BME280;4985;49.092;8.542;2024-02-15T08:26:26;99657.50;;;16.24;49.33
9893;BME280;4985;49.092;8.542;2024-02-15T08:28:51;99660.16;;;16.24;49.42
9893;BME280;4985;49.092;8.542;2024-02-15T08:31:18;99655.66;;;16.24;49.84
9893;BME280;4985;49.092;8.542;2024-02-15T08:33:44;99651.38;;;16.23;49.50
9893;BME280;4985;49.092;8.542;2024-02-15T08:36:11;99642.38;;;16.24;49.52
9893;BME280;4985;49.092;8.542;2024-02-15T08:38:36;99648.72;;;16.23;49.59
9893;BME280;4985;49.092;8.542;2024-02-15T08:41:02;99646.06;;;16.23;49.73
9893;BME280;4985;49.092;8.542;2024-02-15T08:43:29;99646.06;;;16.23;49.71
9893;BME280;4985;49.092;8.542;2024-02-15T08:45:57;99637.06;;;16.24;49.64
9893;BME280;4985;49.092;8.542;2024-02-15T08:48:23;99642.38;;;16.24;49.52
9893;BME280;4985;49.092;8.542;2024-02-15T08:50:48;99639.72;;;16.24;49.86
9893;BME280;4985;49.092;8.542;2024-02-15T08:53:14;99646.88;;;16.24;49.59
9893;BME280;4985;49.092;8.542;2024-02-15T08:55:40;99634.41;;;16.24;49.59
9893;BME280;4985;49.092;8.542;2024-02-15T08:58:06;99641.38;;;16.25;49.79
9893;BME280;4985;49.092;8.542;2024-02-15T09:00:31;99632.56;;;16.25;49.68
9893;BME280;4985;49.092;8.542;2024-02-15T09:02:56;99638.72;;;16.25;49.80
9893;BME280;4985;49.092;8.542;2024-02-15T09:05:22;99642.19;;;16.26;49.67
9893;BME280;4985;49.092;8.542;2024-02-15T09:07:48;99636.06;;;16.25;49.69
9893;BME280;4985;49.092;8.542;2024-02-15T09:10:16;99635.03;;;16.26;49.77
9893;BME280;4985;49.092;8.542;2024-02-15T09:12:45;99636.88;;;16.26;49.58
9893;BME280;4985;49.092;8.542;2024-02-15T09:15:14;99639.53;;;16.26;49.63
9893;BME280;4985;49.092;8.542;2024-02-15T09:17:40;99634.03;;;16.27;49.35
9893;BME280;4985;49.092;8.542;2024-02-15T09:20:10;99634.03;;;16.27;49.63
9893;BME280;4985;49.092;8.542;2024-02-15T09:22:57;99636.69;;;16.27;49.79
9893;BME280;4985;49.092;8.542;2024-02-15T09:25:23;99624.41;;;16.26;49.73
9893;BME280;4985;49.092;8.542;2024-02-15T09:27:49;99619.91;;;16.27;49.73
9893;BME280;4985;49.092;8.542;2024-02-15T09:30:17;99626.06;;;16.27;49.67
9893;BME280;4985;49.092;8.542;2024-02-15T09:32:43;99614.41;;;16.28;49.59
9893;BME280;4985;49.092;8.542;2024-02-15T09:35:10;99613.41;;;16.29;49.62
9893;BME280;4985;49.092;8.542;2024-02-15T09:37:47;99608.06;;;16.29;49.55
9893;BME280;4985;49.092;8.542;2024-02-15T09:40:16;99608.06;;;16.29;49.82
9893;BME280;4985;49.092;8.542;2024-02-15T09:42:43;99602.75;;;16.29;49.80
9893;BME280;4985;49.092;8.542;2024-02-15T09:45:13;99604.41;;;16.30;49.56
9893;BME280;4985;49.092;8.542;2024-02-15T09:47:40;99604.41;;;16.30;49.79
9893;BME280;4985;49.092;8.542;2024-02-15T09:50:12;99599.94;;;16.31;49.59
9893;BME280;4985;49.092;8.542;2024-02-15T09:52:45;99600.94;;;16.30;50.01
9893;BME280;4985;49.092;8.542;2024-02-15T09:55:11;99599.09;;;16.30;49.96
9893;BME280;4985;49.092;8.542;2024-02-15T09:57:38;99601.75;;;16.30;49.87
9893;BME280;4985;49.092;8.542;2024-02-15T10:00:04;99602.41;;;16.33;49.58
9893;BME280;4985;49.092;8.542;2024-02-15T10:02:33;99603.41;;;16.32;49.81
9893;BME280;4985;49.092;8.542;2024-02-15T10:05:02;99603.22;;;16.33;49.94
9893;BME280;4985;49.092;8.542;2024-02-15T10:07:27;99598.72;;;16.34;49.91
9893;BME280;4985;49.092;8.542;2024-02-15T10:09:53;99599.56;;;16.34;50.04
9893;BME280;4985;49.092;8.542;2024-02-15T10:12:18;99589.75;;;16.35;49.91
9893;BME280;4985;49.092;8.542;2024-02-15T10:14:50;99589.75;;;16.35;49.63
9893;BME280;4985;49.092;8.542;2024-02-15T10:17:18;99587.91;;;16.35;49.62
9893;BME280;4985;49.092;8.542;2024-02-15T10:19:43;99579.13;;;16.35;49.95
9893;BME280;4985;49.092;8.542;2024-02-15T10:22:10;99575.44;;;16.36;49.97
9893;BME280;4985;49.092;8.542;2024-02-15T10:24:36;99570.13;;;16.36;49.77
9893;BME280;4985;49.092;8.542;2024-02-15T10:27:04;99566.47;;;16.37;49.86
9893;BME280;4985;49.092;8.542;2024-02-15T10:29:32;99559.31;;;16.37;49.65
9893;BME280;4985;49.092;8.542;2024-02-15T10:32:00;99563.59;;;16.38;49.62
9893;BME280;4985;49.092;8.542;2024-02-15T10:34:26;99563.59;;;16.38;49.58
9893;BME280;4985;49.092;8.542;2024-02-15T10:37:13;99553.78;;;16.39;49.87
9893;BME280;4985;49.092;8.542;2024-02-15T10:39:39;99556.66;;;16.37;49.67
9893;BME280;4985;49.092;8.542;2024-02-15T10:42:09;99558.28;;;16.38;49.52
9893;BME280;4985;49.092;8.542;2024-02-15T10:44:37;99554.63;;;16.39;49.82
9893;BME280;4985;49.092;8.542;2024-02-15T10:47:06;99555.44;;;16.40;49.75
9893;BME280;4985;49.092;8.542;2024-02-15T10:49:33;99557.06;;;16.41;49.49
9893;BME280;4985;49.092;8.542;2024-02-15T10:52:00;99552.56;;;16.41;49.63
9893;BME280;4985;49.092;8.542;2024-02-15T10:57:01;99548.09;;;16.42;49.71
9893;BME280;4985;49.092;8.542;2024-02-15T10:59:31;99544.44;;;16.43;49.54
9893;BME280;4985;49.092;8.542;2024-02-15T11:01:59;99546.91;;;16.44;49.80
9893;BME280;4985;49.092;8.542;2024-02-15T11:04:25;99538.09;;;16.44;49.47
9893;BME280;4985;49.092;8.542;2024-02-15T11:06:58;99531.78;;;16.45;49.78
9893;BME280;4985;49.092;8.542;2024-02-15T11:09:24;99537.09;;;16.45;49.34
9893;BME280;4985;49.092;8.542;2024-02-15T11:11:54;99534.44;;;16.45;49.53
9893;BME280;4985;49.092;8.542;2024-02-15T11:14:30;99528.91;;;16.46;49.54
9893;BME280;4985;49.092;8.542;2024-02-15T11:17:01;99529.13;;;16.45;49.35
9893;BME280;4985;49.092;8.542;2024-02-15T11:19:40;99520.13;;;16.46;49.41
9893;BME280;4985;49.092;8.542;2024-02-15T11:22:09;99514.81;;;16.46;49.49
9893;BME280;4985;49.092;8.542;2024-02-15T11:24:36;99511.34;;;16.45;49.20
9893;BME280;4985;49.092;8.542;2024-02-15T11:27:03;99512.97;;;16.46;49.54
9893;BME280;4985;49.092;8.542;2024-02-15T11:32:33;99502.16;;;16.48;49.53
9893;BME280;4985;49.092;8.542;2024-02-15T11:35:09;99510.13;;;16.48;49.53
9893;BME280;4985;49.092;8.542;2024-02-15T11:42:53;99506.25;;;16.50;49.40
9893;BME280;4985;49.092;8.542;2024-02-15T11:45:20;99495.63;;;16.50;49.47
9893;BME280;4985;49.092;8.542;2024-02-15T11:47:50;99498.06;;;16.52;49.34
9893;BME280;4985;49.092;8.542;2024-02-15T11:50:22;99492.56;;;16.53;49.31
9893;BME280;4985;49.092;8.542;2024-02-15T11:52:49;99497.88;;;16.53;49.42
9893;BME280;4985;49.092;8.542;2024-02-15T11:55:21;99488.91;;;16.54;49.31
9893;BME280;4985;49.092;8.542;2024-02-15T11:58:01;99480.75;;;16.56;49.31
9893;BME280;4985;49.092;8.542;2024-02-15T12:00:32;99483.59;;;16.54;49.50
9893;BME280;4985;49.092;8.542;2024-02-15T12:03:17;99478.28;;;16.54;49.65
9893;BME280;4985;49.092;8.542;2024-02-15T12:06:01;99473.94;;;16.53;49.45
9893;BME280;4985;49.092;8.542;2024-02-15T12:08:46;99476.44;;;16.55;49.34
9893;BME280;4985;49.092;8.542;2024-02-15T12:11:31;99474.81;;;16.54;49.15
9893;BME280;4985;49.092;8.542;2024-02-15T12:14:15;99463.16;;;16.55;49.59
9893;BME280;4985;49.092;8.542;2024-02-15T12:17:04;99464.78;;;16.56;49.23
9893;BME280;4985;49.092;8.542;2024-02-15T12:19:49;99464.59;;;16.57;49.56
9893;BME280;4985;49.092;8.542;2024-02-15T12:22:17;99463.56;;;16.58;49.51
9893;BME280;4985;49.092;8.542;2024-02-15T12:24:52;99446.59;;;16.59;49.42
9893;BME280;4985;49.092;8.542;2024-02-15T12:27:17;99442.91;;;16.60;49.41
9893;BME280;4985;49.092;8.542;2024-02-15T12:29:45;99442.72;;;16.62;49.36
9893;BME280;4985;49.092;8.542;2024-02-15T12:32:20;99435.38;;;16.64;49.33
9893;BME280;4985;49.092;8.542;2024-02-15T12:34:45;99425.56;;;16.65;49.56
9893;BME280;4985;49.092;8.542;2024-02-15T12:37:12;99415.78;;;16.65;49.55
9893;BME280;4985;49.092;8.542;2024-02-15T12:39:38;99412.09;;;16.66;49.46
9893;BME280;4985;49.092;8.542;2024-02-15T12:42:06;99408.41;;;16.67;49.64
9893;BME280;4985;49.092;8.542;2024-02-15T12:44:32;99403.09;;;16.67;49.46
9893;BME280;4985;49.092;8.542;2024-02-15T12:46:59;99400.25;;;16.69;49.47
9893;BME280;4985;49.092;8.542;2024-02-15T12:51:51;99403.75;;;16.69;49.33
9893;BME280;4985;49.092;8.542;2024-02-15T12:54:19;99407.22;;;16.70;49.55
9893;BME280;4985;49.092;8.542;2024-02-15T12:56:46;99396.38;;;16.71;49.57
9893;BME280;4985;49.092;8.542;2024-02-15T12:59:13;99389.22;;;16.72;49.20
9893;BME280;4985;49.092;8.542;2024-02-15T13:01:39;99393.50;;;16.73;49.30
9893;BME280;4985;49.092;8.542;2024-02-15T13:04:04;99381.88;;;16.74;49.35
9893;BME280;4985;49.092;8.542;2024-02-15T13:06:31;99386.34;;;16.73;49.39
9893;BME280;4985;49.092;8.542;2024-02-15T13:09:00;99383.69;;;16.73;49.36
9893;BME280;4985;49.092;8.542;2024-02-15T13:11:25;99383.50;;;16.75;48.93
9893;BME280;4985;49.092;8.542;2024-02-15T13:13:51;99381.66;;;16.75;49.36
9893;BME280;4985;49.092;8.542;2024-02-15T13:16:17;99376.34;;;16.75;49.43
9893;BME280;4985;49.092;8.542;2024-02-15T13:18:45;99374.50;;;16.76;49.16
9893;BME280;4985;49.092;8.542;2024-02-15T13:21:12;99374.31;;;16.77;49.40
9893;BME280;4985;49.092;8.542;2024-02-15T13:23:37;99373.31;;;16.78;49.57
9893;BME280;4985;49.092;8.542;2024-02-15T13:26:03;99369.63;;;16.79;49.28
9893;BME280;4985;49.092;8.542;2024-02-15T13:28:30;99372.28;;;16.79;49.42
9893;BME280;4985;49.092;8.542;2024-02-15T13:30:55;99366.97;;;16.79;49.42
9893;BME280;4985;49.092;8.542;2024-02-15T13:33:21;99375.56;;;16.81;49.39
9893;BME280;4985;49.092;8.542;2024-02-15T13:35:47;99367.56;;;16.81;49.25
9893;BME280;4985;49.092;8.542;2024-02-15T13:38:15;99359.59;;;16.81;48.97